• Join FlightAware (Why Join?)
  • Login
  • US Flag 
01:22AM EDT


 

Airport Tracker/Info


-or-


 

Live Flight TrackerFlight Track Log ✈ SWA2004 ✈ 21-Apr-2013 ✈ KBNA - KCMH

Flight Track Log - Related Links

Times and Time Zones

All times are in EDT time to prevent confusion due to time zone crossing. See the SWA2004 flight status page for this flight to view local times or setup timezone preferences in your user account.

Time Position Orientation Groundspeed Altitude Reporting Facility
EDT Latitude Longitude Course Direction KTS MPH feet Rate Location/Type
10:22PM 36.1667 -86.6667 22° Northeast 185 213 3,100  Level Nashville TRACON
10:23PM 36.2333 -86.6333 22° Northeast 274 315 5,600 3,240 Climbing Nashville TRACON
10:24PM 36.3511 -86.5744 22° Northeast 313 360 11,600 3,600 Climbing Memphis Center
10:25PM 36.4350 -86.5292 23° Northeast 319 367 15,400 3,360 Climbing Memphis Center
10:26PM 36.5294 -86.4756 25° Northeast 347 399 18,400 3,120 Climbing Memphis Center
10:27PM 36.7621 -86.3682 15° North  Level FlightAware Approximate
10:27PM 36.6278 -86.4217 24° Northeast 374 430 21,700  Level Memphis Center
10:30PM 36.8864 -86.2756 24° Northeast 414 476 28,200 2,640 Climbing Indianapolis Center
10:31PM 36.9947 -86.2139 24° Northeast 424 488 31,000 2,340 Climbing Indianapolis Center
10:32PM 37.1006 -86.1539 24° Northeast 414 476 33,000 600 Climbing Indianapolis Center
10:34PM 37.3183 -86.0311 24° Northeast 428 493 33,000  Level Indianapolis Center
10:35PM 37.4356 -85.9636 25° Northeast 454 522 33,000  Level Indianapolis Center
10:36PM 37.5647 -85.8897 24° Northeast 456 525 33,000  Level Indianapolis Center
10:37PM 37.6814 -85.8236 24° Northeast 457 526 33,000  Level Indianapolis Center
10:38PM 37.7950 -85.7569 25° Northeast 451 519 33,000  Level Indianapolis Center
10:39PM 37.9094 -85.6903 25° Northeast 452 520 33,000  Level Indianapolis Center
10:40PM 38.0228 -85.6244 25° Northeast 449 517 33,000 -480 Level Indianapolis Center
10:41PM 38.1314 -85.5494 29° Northeast 450 518 32,100 -900 Descending Indianapolis Center
10:42PM 38.2328 -85.4539 37° Northeast 454 522 31,200 -600 Descending Indianapolis Center
10:43PM 38.3333 -85.3597 36° Northeast 447 514 31,000 -120 Descending Indianapolis Center
10:44PM 38.4322 -85.2647 37° Northeast 443 510 31,000  Level Indianapolis Center
10:45PM 38.5433 -85.1586 37° Northeast 451 519 31,000  Level Indianapolis Center
10:46PM 38.6422 -85.0644 37° Northeast 443 510 31,000  Level Indianapolis Center
10:47PM 38.7325 -84.9772 37° Northeast 448 516 31,000 -1,200 Level Indianapolis Center
10:48PM 38.8408 -84.8728 37° Northeast 444 511 28,700 -2,340 Descending Indianapolis Center
10:49PM 38.9264 -84.7892 37° Northeast 444 511 26,300 -2,340 Descending Indianapolis Center
10:50PM 39.0203 -84.6933 38° Northeast 430 495 24,000 -1,680 Descending Indianapolis Center
10:51PM 39.0889 -84.5697 54° Northeast 422 486 23,000 -1,020 Descending Indianapolis Center
10:52PM 39.1578 -84.4478 54° Northeast 419 482 22,000 -1,020 Descending Indianapolis Center
10:53PM 39.2233 -84.3247 55° Northeast 415 478 21,000 -1,020 Descending Indianapolis Center
10:54PM 39.2886 -84.2047 55° Northeast 407 468 20,000 -1,020 Descending Indianapolis Center
10:55PM 39.3408 -84.0772 62° Northeast 397 457 19,000 -600 Descending Indianapolis Center
10:56PM 39.3886 -83.9503 64° Northeast 391 450 18,900 -540 Descending Indianapolis Center
10:57PM 39.4336 -83.8353 63° Northeast 364 419 18,000 -1,620 Descending Indianapolis Center
10:58PM 39.4831 -83.7050 64° Northeast 346 398 15,700 -2,100 Descending Indianapolis Center
10:59PM 39.5244 -83.5969 64° Northeast 336 387 13,800 -1,800 Descending Indianapolis Center
11:00PM 39.5639 -83.4925 64° Northeast 324 373 12,100 -1,440 Descending Indianapolis Center
11:01PM 39.5994 -83.4058 62° Northeast 311 358 11,100 -600 Descending Indianapolis Center
11:02PM 39.6581 -83.3097 52° Northeast 303 349 11,000 -120 Descending Indianapolis Center
11:03PM 39.7094 -83.2428 45° Northeast 308 354 10,900 -1,140 Descending Indianapolis Center
11:04PM 39.8006 -83.2167 12° North 302 348 8,800 -1,860 Descending Indianapolis Center
11:05PM 39.8758 -83.2000 10° North 298 343 7,200 -1,740 Descending Indianapolis Center
11:06PM 39.9311 -83.1278 45° Northeast 273 314 5,600 -1,620 Descending Indianapolis Center
11:07PM 39.9881 -83.0908 26° Northeast 211 243 4,000 -1,200 Descending Indianapolis Center
11:09PM 39.9951 -82.9511 90° East  Level Estimated
11:09PM 39.9983 -82.9750 90° East 162 186 1,900  Level Indianapolis Center
11:10PM 39.9967 -82.9367 93° East 112 129 1,300 -480 Descending Indianapolis Center
11:11PM 39.9942 -82.8828 93° East 130 150 1,000 -300 Descending Indianapolis Center
11:13PM 39.9833 -82.8833 270° West  Level FlightAware Approximate